createdAt,value
2019-02-12T00:00:21.603Z,2.18
2019-02-12T00:05:27.244Z,2.17
2019-02-12T00:10:32.784Z,2.07
2019-02-12T00:15:38.252Z,2.00
2019-02-12T00:20:43.696Z,1.99
2019-02-12T00:25:48.930Z,1.94
2019-02-12T00:30:54.422Z,1.99
2019-02-12T00:36:00.058Z,1.95
2019-02-12T00:41:05.449Z,1.91
2019-02-12T00:46:10.796Z,1.92
2019-02-12T00:51:17.858Z,1.96
2019-02-12T00:56:23.156Z,1.95
2019-02-12T01:01:28.299Z,1.89
2019-02-12T01:06:35.618Z,1.91
2019-02-12T01:11:41.084Z,1.96
2019-02-12T01:16:46.641Z,1.96
2019-02-12T01:21:52.096Z,1.94
2019-02-12T01:26:57.462Z,1.95
2019-02-12T01:32:02.714Z,1.93
2019-02-12T01:37:08.180Z,1.89
2019-02-12T01:42:13.328Z,1.93
2019-02-12T01:47:18.797Z,2.01
2019-02-12T01:52:23.956Z,2.02
2019-02-12T01:57:29.175Z,1.99
2019-02-12T02:02:34.605Z,2.01
2019-02-12T02:07:39.779Z,2.06
2019-02-12T02:12:45.586Z,2.09
2019-02-12T02:17:50.838Z,2.21
2019-02-12T02:22:56.087Z,2.22
2019-02-12T02:28:01.353Z,2.29
2019-02-12T02:33:06.736Z,2.25
2019-02-12T02:38:12.479Z,2.30
2019-02-12T02:43:17.839Z,2.30
2019-02-12T02:48:22.978Z,2.24
2019-02-12T02:53:28.555Z,2.18
2019-02-12T02:58:33.695Z,2.08
2019-02-12T03:03:38.995Z,2.02
2019-02-12T03:08:44.436Z,1.97
2019-02-12T03:13:49.884Z,1.93
2019-02-12T03:18:55.256Z,1.87
2019-02-12T03:24:01.016Z,1.87
2019-02-12T03:29:06.278Z,1.83
2019-02-12T03:39:15.752Z,1.93
2019-02-12T03:44:21.130Z,1.79
2019-02-12T03:49:26.344Z,1.78
2019-02-12T03:54:31.770Z,1.76
2019-02-12T03:59:37.076Z,1.70
2019-02-12T04:04:42.651Z,1.69
2019-02-12T04:09:47.910Z,1.68
2019-02-12T04:14:53.136Z,1.75
2019-02-12T04:19:58.486Z,1.90
2019-02-12T04:25:03.793Z,1.84
2019-02-12T04:30:09.479Z,1.84
2019-02-12T04:35:14.811Z,1.82
2019-02-12T04:40:20.060Z,1.80
2019-02-12T04:45:25.524Z,1.77
2019-02-12T04:50:30.881Z,1.75
2019-02-12T04:55:35.914Z,1.80
2019-02-12T05:00:41.374Z,1.83
2019-02-12T05:05:46.659Z,1.91
2019-02-12T05:11:03.786Z,1.77
2019-02-12T05:16:09.046Z,1.74
2019-02-12T05:21:14.176Z,1.61
2019-02-12T05:26:19.359Z,1.62
2019-02-12T05:31:24.611Z,1.63
2019-02-12T05:36:29.962Z,1.62
2019-02-12T05:41:35.661Z,1.61
2019-02-12T05:46:40.987Z,1.59
2019-02-12T05:51:46.561Z,1.58
2019-02-12T05:56:52.228Z,1.54
2019-02-12T06:01:57.485Z,1.48
2019-02-12T06:07:02.837Z,1.56
2019-02-12T06:12:08.301Z,1.53
2019-02-12T06:17:13.473Z,1.57
2019-02-12T06:22:18.716Z,1.60
2019-02-12T06:27:24.952Z,1.72
2019-02-12T06:32:30.367Z,1.66
2019-02-12T06:37:35.600Z,1.62
2019-02-12T06:42:41.050Z,1.68
2019-02-12T06:47:46.322Z,1.71
2019-02-12T06:52:51.778Z,1.80
2019-02-12T06:57:57.136Z,1.93
2019-02-12T07:03:19.144Z,2.02
2019-02-12T07:08:42.662Z,2.10
2019-02-12T07:14:00.405Z,2.17
2019-02-12T07:19:26.873Z,2.31
2019-02-12T07:24:35.257Z,2.30
2019-02-12T07:29:58.794Z,2.41
2019-02-12T07:35:09.979Z,2.53
2019-02-12T07:40:23.873Z,2.70
2019-02-12T07:45:34.941Z,2.84
2019-02-12T07:50:49.003Z,2.94
2019-02-12T07:56:09.162Z,3.05
2019-02-12T08:01:17.425Z,3.06
2019-02-12T08:06:52.413Z,3.01
2019-02-12T08:12:03.481Z,3.07
2019-02-12T08:17:17.535Z,3.07
2019-02-12T08:22:47.068Z,3.07
2019-02-12T08:28:13.208Z,3.19
2019-02-12T08:33:26.998Z,3.30
2019-02-12T08:38:40.946Z,3.45
2019-02-12T08:43:58.421Z,3.43
2019-02-12T08:49:15.350Z,3.49
2019-02-12T08:54:27.967Z,3.50
2019-02-12T08:59:39.077Z,3.44
2019-02-12T09:05:03.718Z,3.46
2019-02-12T09:10:14.950Z,3.45
2019-02-12T09:15:58.392Z,3.55
2019-02-12T09:21:09.609Z,3.55
2019-02-12T09:26:18.005Z,3.70
2019-02-12T09:31:43.955Z,3.61
2019-02-12T09:37:01.057Z,3.64
2019-02-12T09:42:15.250Z,3.63
2019-02-12T09:47:29.713Z,3.60
2019-02-12T09:53:12.618Z,3.74
2019-02-12T09:58:39.016Z,3.76
2019-02-12T10:03:56.257Z,3.65
2019-02-12T10:09:19.323Z,3.71
2019-02-12T10:14:39.428Z,3.70
2019-02-12T10:19:56.678Z,3.76
2019-02-12T10:25:04.772Z,3.81
2019-02-12T10:30:32.758Z,3.90
2019-02-12T10:35:38.044Z,3.91
2019-02-12T10:40:43.182Z,4.09
2019-02-12T10:45:48.446Z,4.19
2019-02-12T10:50:53.607Z,3.96
2019-02-12T10:55:58.798Z,3.88
2019-02-12T11:01:04.515Z,3.75
2019-02-12T11:06:09.685Z,3.92
2019-02-12T11:11:14.956Z,4.15
2019-02-12T11:16:20.287Z,4.12
2019-02-12T11:21:25.537Z,4.19
2019-02-12T11:26:30.860Z,3.92
2019-02-12T11:31:35.959Z,4.09
2019-02-12T11:36:41.300Z,4.48
2019-02-12T11:41:46.581Z,4.33
2019-02-12T11:46:51.927Z,4.35
2019-02-12T11:51:57.095Z,4.48
2019-02-12T11:57:02.353Z,4.74
2019-02-12T12:02:07.685Z,4.90
2019-02-12T12:07:12.960Z,4.85
2019-02-12T12:12:18.168Z,4.55
2019-02-12T12:17:23.882Z,4.26
2019-02-12T12:22:29.228Z,3.86
2019-02-12T12:27:34.490Z,3.84
2019-02-12T12:32:39.743Z,3.92
2019-02-12T12:37:45.104Z,3.88
2019-02-12T12:42:50.334Z,4.07
2019-02-12T12:47:55.649Z,4.12
2019-02-12T12:53:00.975Z,4.16
2019-02-12T12:58:07.324Z,4.32
2019-02-12T13:03:13.565Z,4.36
2019-02-12T13:08:19.004Z,4.46
2019-02-12T13:13:24.263Z,4.37
2019-02-12T13:18:29.618Z,4.40
2019-02-12T13:23:34.748Z,4.35
2019-02-12T13:28:40.081Z,4.18
2019-02-12T13:33:45.396Z,4.09
2019-02-12T13:38:50.462Z,4.29
2019-02-12T13:43:56.007Z,4.26
2019-02-12T13:49:01.231Z,4.27
2019-02-12T13:54:06.471Z,4.30
2019-02-12T13:59:11.857Z,4.29
2019-02-12T14:04:17.090Z,4.26
2019-02-12T14:09:22.790Z,4.30
2019-02-12T14:14:27.949Z,4.22
2019-02-12T14:19:33.335Z,4.06
2019-02-12T14:24:39.285Z,4.02
2019-02-12T14:29:44.531Z,5.11
2019-02-12T14:34:49.797Z,5.68
2019-02-12T14:39:54.854Z,5.42
2019-02-12T14:45:00.274Z,5.23
2019-02-12T14:50:08.480Z,4.97
2019-02-12T14:55:13.968Z,4.89
2019-02-12T15:00:20.531Z,4.30
2019-02-12T15:05:25.731Z,4.01
2019-02-12T15:10:30.984Z,3.64
2019-02-12T15:15:36.446Z,3.31
2019-02-12T15:20:41.801Z,3.21
2019-02-12T15:25:47.274Z,3.06
2019-02-12T15:30:52.692Z,2.91
2019-02-12T15:35:58.023Z,2.70
2019-02-12T15:41:05.983Z,2.58
2019-02-12T15:46:10.443Z,2.59
2019-02-12T15:51:15.604Z,2.43
2019-02-12T15:56:20.818Z,2.34
2019-02-12T16:01:28.166Z,2.32
2019-02-12T16:06:33.817Z,2.21
2019-02-12T16:11:39.997Z,2.21
2019-02-12T16:16:45.975Z,2.10
2019-02-12T16:21:51.114Z,2.03
2019-02-12T16:26:56.170Z,2.01
2019-02-12T16:32:01.561Z,1.95
2019-02-12T16:37:06.614Z,1.91
2019-02-12T16:42:12.037Z,1.89
2019-02-12T16:47:17.315Z,1.84
2019-02-12T16:52:22.574Z,1.81
2019-02-12T16:57:27.626Z,1.79
2019-02-12T17:02:32.663Z,1.75
2019-02-12T17:07:37.851Z,1.71
2019-02-12T17:12:43.211Z,1.70
2019-02-12T17:17:48.757Z,1.68
2019-02-12T17:22:54.008Z,1.66
2019-02-12T17:27:59.121Z,1.66
2019-02-12T17:33:04.256Z,1.63
2019-02-12T17:38:09.407Z,1.57
2019-02-12T17:43:14.627Z,1.54
2019-02-12T17:48:19.792Z,1.55
2019-02-12T17:53:25.645Z,1.50
2019-02-12T17:58:31.109Z,1.49
2019-02-12T18:03:36.365Z,1.47
2019-02-12T18:08:41.413Z,1.43
2019-02-12T18:13:46.476Z,1.42
2019-02-12T18:18:51.985Z,1.38
2019-02-12T18:23:57.310Z,1.36
2019-02-12T18:29:02.742Z,1.35
2019-02-12T18:34:07.994Z,1.34
2019-02-12T18:39:13.118Z,1.35
2019-02-12T18:44:18.410Z,1.31
2019-02-12T18:49:23.690Z,1.32
2019-02-12T18:54:28.907Z,1.29
2019-02-12T18:59:34.086Z,1.23
2019-02-12T19:04:39.563Z,1.23
2019-02-12T19:09:44.899Z,1.32
2019-02-12T19:14:50.360Z,1.35
2019-02-12T19:19:55.712Z,1.40
2019-02-12T19:25:01.049Z,1.47
2019-02-12T19:30:09.496Z,1.53
2019-02-12T19:35:15.105Z,1.58
2019-02-12T19:40:20.306Z,1.58
2019-02-12T19:45:25.693Z,1.60
2019-02-12T19:50:30.852Z,1.57
2019-02-12T19:55:36.294Z,1.48
2019-02-12T20:00:41.554Z,1.48
2019-02-12T20:05:46.984Z,1.49
2019-02-12T20:10:52.174Z,1.56
2019-02-12T20:15:57.640Z,1.55
2019-02-12T20:21:02.810Z,1.54
2019-02-12T20:26:08.142Z,1.53
2019-02-12T20:31:13.301Z,1.50
2019-02-12T20:36:18.460Z,1.49
2019-02-12T20:41:24.123Z,1.43
2019-02-12T20:46:29.481Z,1.43
2019-02-12T20:51:34.991Z,1.41
2019-02-12T20:56:40.099Z,1.36
2019-02-12T21:01:45.321Z,1.32
2019-02-12T21:06:50.797Z,1.26
2019-02-12T21:11:56.166Z,1.23
2019-02-12T21:17:01.326Z,1.18
2019-02-12T21:22:06.867Z,1.14
2019-02-12T21:27:12.405Z,1.09
2019-02-12T21:32:17.710Z,1.13
2019-02-12T21:37:22.961Z,1.08
2019-02-12T21:42:28.422Z,1.06
2019-02-12T21:47:33.866Z,1.05
2019-02-12T21:52:39.244Z,1.06
2019-02-12T21:57:44.787Z,1.06
2019-02-12T22:02:49.946Z,1.05
2019-02-12T22:07:55.222Z,0.99
2019-02-12T22:13:00.462Z,0.95
2019-02-12T22:18:05.961Z,0.97
2019-02-12T22:23:11.304Z,0.95
2019-02-12T22:28:16.935Z,0.94
2019-02-12T22:33:22.209Z,0.89
2019-02-12T22:38:27.653Z,0.90
2019-02-12T22:43:33.109Z,0.90
2019-02-12T22:48:38.352Z,0.82
2019-02-12T22:53:43.655Z,0.86
2019-02-12T22:58:49.034Z,0.92
2019-02-12T23:03:54.682Z,0.94
2019-02-12T23:09:00.141Z,0.99
2019-02-12T23:14:05.702Z,1.03
2019-02-12T23:19:11.118Z,1.08
2019-02-12T23:24:16.422Z,1.08
2019-02-12T23:29:21.668Z,1.16
2019-02-12T23:34:27.140Z,1.26
2019-02-12T23:39:32.638Z,1.32
2019-02-12T23:44:38.002Z,1.40
2019-02-12T23:49:43.332Z,1.44
2019-02-12T23:54:48.440Z,1.47
2019-02-12T23:59:54.064Z,1.54
